createdAt,value
2023-01-19T00:01:44.074Z,101895.91
2023-01-19T00:04:12.360Z,101889.75
2023-01-19T00:06:40.807Z,101893.34
2023-01-19T00:09:09.126Z,101892.47
2023-01-19T00:11:37.509Z,101886.22
2023-01-19T00:14:06.203Z,101892.44
2023-01-19T00:16:34.794Z,101895.13
2023-01-19T00:19:03.073Z,101894.31
2023-01-19T00:21:31.417Z,101905.88
2023-01-19T00:23:59.698Z,101906.75
2023-01-19T00:26:27.973Z,101906.78
2023-01-19T00:28:56.224Z,101904.19
2023-01-19T00:31:24.541Z,101898.91
2023-01-19T00:33:53.489Z,101899.88
2023-01-19T00:36:21.787Z,101896.34
2023-01-19T00:38:50.083Z,101893.72
2023-01-19T00:41:19.760Z,101902.63
2023-01-19T00:43:48.058Z,101905.28
2023-01-19T00:46:16.349Z,101908.84
2023-01-19T00:48:45.809Z,101909.81
2023-01-19T00:51:14.044Z,101893.94
2023-01-19T00:53:42.300Z,101893.97
2023-01-19T00:56:10.974Z,101892.31
2023-01-19T00:58:39.273Z,101900.31
2023-01-19T01:01:07.653Z,101906.56
2023-01-19T01:03:36.005Z,101907.44
2023-01-19T01:06:04.644Z,101905.69
2023-01-19T01:08:33.244Z,101901.28
2023-01-19T01:11:02.247Z,101903.13
2023-01-19T01:13:30.909Z,101907.56
2023-01-19T01:15:59.471Z,101896.13
2023-01-19T01:18:27.815Z,101889.09
2023-01-19T01:21:13.684Z,101885.63
2023-01-19T01:23:41.969Z,101884.81
2023-01-19T01:26:10.272Z,101882.22
2023-01-19T01:28:38.586Z,101887.59
2023-01-19T01:31:06.871Z,101885.91
2023-01-19T01:33:40.703Z,101887.72
2023-01-19T01:36:11.155Z,101885.13
2023-01-19T01:38:41.468Z,101899.34
2023-01-19T01:41:10.158Z,101896.72
2023-01-19T01:43:47.712Z,101894.09
2023-01-19T01:46:18.115Z,101899.41
2023-01-19T01:48:52.716Z,101905.63
2023-01-19T01:51:27.337Z,101908.28
2023-01-19T01:54:22.929Z,101902.06
2023-01-19T01:56:54.339Z,101904.72
2023-01-19T01:59:41.574Z,101900.31
2023-01-19T02:02:41.368Z,101903.00
2023-01-19T02:05:14.305Z,101898.59
2023-01-19T02:08:07.775Z,101899.53
2023-01-19T02:10:55.022Z,101900.44
2023-01-19T02:13:24.366Z,101903.16
2023-01-19T02:15:55.726Z,101904.91
2023-01-19T02:18:26.394Z,101893.47
2023-01-19T02:21:22.326Z,101904.13
2023-01-19T02:23:58.924Z,101908.59
2023-01-19T02:26:36.399Z,101901.53
2023-01-19T02:29:09.290Z,101901.53
2023-01-19T02:31:39.957Z,101891.81
2023-01-19T02:34:11.475Z,101900.66
2023-01-19T02:37:04.369Z,101895.41
2023-01-19T02:39:53.337Z,101893.59
2023-01-19T02:42:28.438Z,101901.56
2023-01-19T02:44:58.581Z,101904.25
2023-01-19T02:47:27.023Z,101898.03
2023-01-19T02:49:59.178Z,101897.19
2023-01-19T02:52:28.805Z,101898.00
2023-01-19T02:55:09.967Z,101891.78
2023-01-19T02:57:41.509Z,101892.69
2023-01-19T03:00:38.023Z,101889.16
2023-01-19T03:03:38.639Z,101887.47
2023-01-19T03:06:22.313Z,101888.34
2023-01-19T03:09:15.731Z,101892.78
2023-01-19T03:11:51.527Z,101898.97
2023-01-19T03:14:26.287Z,101898.09
2023-01-19T03:17:00.519Z,101891.88
2023-01-19T03:19:34.293Z,101890.94
2023-01-19T03:22:22.938Z,101890.03
2023-01-19T03:24:54.691Z,101894.56
2023-01-19T03:27:28.297Z,101900.81
2023-01-19T03:30:03.025Z,101907.03
2023-01-19T03:32:37.152Z,101895.59
2023-01-19T03:35:12.640Z,101900.91
2023-01-19T03:37:45.280Z,101885.03
2023-01-19T03:40:13.799Z,101886.81
2023-01-19T03:42:43.609Z,101894.78
2023-01-19T03:45:14.308Z,101907.16
2023-01-19T03:47:42.971Z,101903.63
2023-01-19T03:50:22.949Z,101899.25
2023-01-19T03:53:07.436Z,101890.41
2023-01-19T03:55:37.992Z,101879.78
2023-01-19T03:58:07.925Z,101889.53
2023-01-19T04:00:37.430Z,101900.13
2023-01-19T04:03:07.573Z,101898.34
2023-01-19T04:05:35.863Z,101900.13
2023-01-19T04:08:04.291Z,101894.84
2023-01-19T04:10:32.857Z,101883.41
2023-01-19T04:13:02.941Z,101894.03
2023-01-19T04:15:32.171Z,101894.06
2023-01-19T04:18:02.014Z,101898.50
2023-01-19T04:20:30.918Z,101899.38
2023-01-19T04:23:03.323Z,101900.28
2023-01-19T04:25:31.779Z,101903.81
2023-01-19T04:28:00.188Z,101907.34
2023-01-19T04:30:29.191Z,101913.50
2023-01-19T04:33:00.017Z,101912.59
2023-01-19T04:35:28.520Z,101923.22
2023-01-19T04:37:56.789Z,101912.63
2023-01-19T04:40:25.416Z,101910.84
2023-01-19T04:42:53.724Z,101914.38
2023-01-19T04:45:22.009Z,101924.13
2023-01-19T04:47:52.233Z,101922.34
2023-01-19T04:50:20.661Z,101918.84
2023-01-19T04:52:49.896Z,101915.38
2023-01-19T04:55:19.312Z,101892.41
2023-01-19T04:57:47.633Z,101887.97
2023-01-19T05:00:16.656Z,101893.28
2023-01-19T05:02:46.045Z,101896.78
2023-01-19T05:05:14.925Z,101899.44
2023-01-19T05:07:44.793Z,101898.50
2023-01-19T05:10:13.538Z,101900.25
2023-01-19T05:12:43.052Z,101897.59
2023-01-19T05:15:12.193Z,101897.63
2023-01-19T05:17:40.496Z,101906.41
2023-01-19T05:20:11.232Z,101895.81
2023-01-19T05:22:40.208Z,101905.50
2023-01-19T05:25:12.614Z,101898.38
2023-01-19T05:27:40.930Z,101903.66
2023-01-19T05:30:10.053Z,101904.53
2023-01-19T05:32:38.529Z,101901.84
2023-01-19T05:35:07.449Z,101892.94
2023-01-19T05:37:35.715Z,101900.91
2023-01-19T05:40:04.339Z,101909.72
2023-01-19T05:42:33.038Z,101916.81
2023-01-19T05:45:01.612Z,101915.09
2023-01-19T05:47:33.341Z,101906.31
2023-01-19T05:50:01.632Z,101914.31
2023-01-19T05:52:30.009Z,101917.00
2023-01-19T05:54:58.496Z,101923.25
2023-01-19T05:57:26.850Z,101914.44
2023-01-19T05:59:55.180Z,101923.31
2023-01-19T06:02:29.369Z,101915.38
2023-01-19T06:04:57.991Z,101910.91
2023-01-19T06:07:28.857Z,101910.03
2023-01-19T06:09:57.715Z,101911.81
2023-01-19T06:12:26.270Z,101911.00
2023-01-19T06:14:54.683Z,101903.94
2023-01-19T06:17:23.212Z,101896.88
2023-01-19T06:19:51.519Z,101902.22
2023-01-19T06:22:19.812Z,101891.63
2023-01-19T06:24:48.099Z,101894.31
2023-01-19T06:27:16.359Z,101888.13
2023-01-19T06:29:44.645Z,101892.56
2023-01-19T06:32:13.272Z,101884.53
2023-01-19T06:34:44.563Z,101879.16
2023-01-19T06:37:12.923Z,101883.53
2023-01-19T06:39:42.003Z,101879.06
2023-01-19T06:42:10.505Z,101879.06
2023-01-19T06:44:38.788Z,101879.94
2023-01-19T06:47:14.955Z,101875.47
2023-01-19T06:49:44.672Z,101886.09
2023-01-19T06:52:16.758Z,101884.31
2023-01-19T06:54:46.978Z,101881.66
2023-01-19T06:57:15.783Z,101890.50
2023-01-19T06:59:44.096Z,101893.97
2023-01-19T07:02:26.325Z,101901.03
2023-01-19T07:04:57.246Z,101901.94
2023-01-19T07:07:25.894Z,101905.50
2023-01-19T07:09:54.681Z,101916.16
2023-01-19T07:12:24.186Z,101917.94
2023-01-19T07:14:53.560Z,101919.75
2023-01-19T07:17:21.928Z,101913.66
2023-01-19T07:19:50.218Z,101907.56
2023-01-19T07:22:18.817Z,101905.91
2023-01-19T07:24:47.118Z,101909.53
2023-01-19T07:27:17.222Z,101908.72
2023-01-19T07:29:45.596Z,101898.13
2023-01-19T07:32:14.351Z,101892.84
2023-01-19T07:34:42.651Z,101887.63
2023-01-19T07:37:10.968Z,101888.56
2023-01-19T07:39:39.305Z,101882.44
2023-01-19T07:42:08.262Z,101873.56
2023-01-19T07:44:36.749Z,101886.81
2023-01-19T07:47:08.306Z,101883.25
2023-01-19T07:49:37.298Z,101884.97
2023-01-19T07:52:05.799Z,101888.47
2023-01-19T07:54:34.458Z,101885.91
2023-01-19T07:57:03.115Z,101898.28
2023-01-19T07:59:33.138Z,101895.63
2023-01-19T08:02:01.586Z,101901.81
2023-01-19T08:04:30.321Z,101910.75
2023-01-19T08:06:58.685Z,101924.91
2023-01-19T08:09:27.087Z,101928.53
2023-01-19T08:11:55.439Z,101943.72
2023-01-19T08:14:23.755Z,101949.25
2023-01-19T08:16:52.080Z,101962.69
2023-01-19T08:19:20.439Z,101965.53
2023-01-19T08:21:48.834Z,101963.91
2023-01-19T08:24:23.593Z,101976.38
2023-01-19T08:26:52.507Z,101983.59
2023-01-19T08:29:20.850Z,101976.66
2023-01-19T08:31:49.316Z,101981.16
2023-01-19T08:34:17.756Z,101975.03
2023-01-19T08:36:46.169Z,101973.28
2023-01-19T08:39:15.551Z,101978.63
2023-01-19T08:41:43.818Z,101977.72
2023-01-19T08:44:12.259Z,101978.56
2023-01-19T08:46:40.560Z,101982.03
2023-01-19T08:49:09.632Z,101987.31
2023-01-19T08:51:38.978Z,101982.91
2023-01-19T08:54:07.508Z,101977.63
2023-01-19T08:56:35.790Z,101978.53
2023-01-19T08:59:09.952Z,101980.34
2023-01-19T09:01:39.293Z,101990.94
2023-01-19T09:04:07.802Z,101985.66
2023-01-19T09:06:36.151Z,101987.41
2023-01-19T09:09:04.774Z,101988.31
2023-01-19T09:11:33.237Z,101991.81
2023-01-19T09:14:01.601Z,101990.91
2023-01-19T09:16:30.199Z,101990.03
2023-01-19T09:18:59.376Z,101995.28
2023-01-19T09:21:27.668Z,102001.41
2023-01-19T09:23:56.106Z,102002.31
2023-01-19T09:26:24.654Z,101998.78
2023-01-19T09:28:52.955Z,102013.75
2023-01-19T09:31:21.407Z,102012.00
2023-01-19T09:33:49.856Z,102011.97
2023-01-19T09:36:18.133Z,102019.00
2023-01-19T09:38:46.930Z,102027.81
2023-01-19T09:41:23.032Z,102021.69
2023-01-19T09:43:59.158Z,102024.31
2023-01-19T09:46:40.813Z,102026.97
2023-01-19T09:49:22.815Z,102029.59
2023-01-19T09:51:52.353Z,102027.84
2023-01-19T09:54:37.388Z,102036.63
2023-01-19T09:57:07.517Z,102035.78
2023-01-19T09:59:37.503Z,102030.47
2023-01-19T10:02:14.482Z,102029.56
2023-01-19T10:04:45.058Z,102027.78
2023-01-19T10:07:21.353Z,102024.25
2023-01-19T10:10:07.348Z,102032.22
2023-01-19T10:12:59.392Z,102026.94
2023-01-19T10:15:48.397Z,102035.75
2023-01-19T10:18:31.825Z,102041.06
2023-01-19T10:21:17.645Z,102032.28
2023-01-19T10:24:08.763Z,102037.56
2023-01-19T10:26:53.461Z,102036.69
2023-01-19T10:29:24.603Z,102034.94
2023-01-19T10:31:57.765Z,102028.75
2023-01-19T10:34:26.047Z,102034.91
2023-01-19T10:37:03.863Z,102033.16
2023-01-19T10:39:35.780Z,102026.09
2023-01-19T10:42:07.520Z,102032.28
2023-01-19T10:44:38.473Z,102033.16
2023-01-19T10:47:15.893Z,102034.94
2023-01-19T10:49:44.689Z,102032.28
2023-01-19T10:52:45.586Z,102035.81
2023-01-19T10:55:29.346Z,102035.81
2023-01-19T10:57:59.104Z,102034.94
2023-01-19T11:00:38.654Z,102034.94
2023-01-19T11:03:28.715Z,102034.94
2023-01-19T11:06:17.770Z,102023.50
2023-01-19T11:08:47.757Z,102024.41
2023-01-19T11:11:16.020Z,102026.16
2023-01-19T11:13:45.019Z,102024.38
2023-01-19T11:16:35.599Z,102025.28
2023-01-19T11:19:04.453Z,102024.41
2023-01-19T11:21:34.023Z,102021.75
2023-01-19T11:24:06.314Z,102024.41
2023-01-19T11:26:49.886Z,102018.25
2023-01-19T11:29:28.224Z,102032.34
2023-01-19T11:32:00.280Z,102031.50
2023-01-19T11:34:38.828Z,102024.50
2023-01-19T11:37:17.436Z,102018.31
2023-01-19T11:39:51.142Z,102015.69
2023-01-19T11:42:20.968Z,102015.69
2023-01-19T11:45:13.609Z,102013.97
2023-01-19T11:47:47.982Z,102015.72
2023-01-19T11:50:34.346Z,102018.41
2023-01-19T11:53:16.048Z,102018.38
2023-01-19T11:55:53.518Z,102020.16
2023-01-19T11:58:22.548Z,102016.63
2023-01-19T12:01:03.658Z,102017.53
2023-01-19T12:03:34.405Z,102021.03
2023-01-19T12:06:15.194Z,102010.47
2023-01-19T12:08:59.457Z,102018.44
2023-01-19T12:11:40.956Z,102008.75
2023-01-19T12:14:24.787Z,102007.88
2023-01-19T12:16:56.349Z,102013.16
2023-01-19T12:19:41.958Z,102008.75
2023-01-19T12:22:17.704Z,102007.88
2023-01-19T12:24:58.069Z,102009.66
2023-01-19T12:27:47.149Z,102016.66
2023-01-19T12:30:30.332Z,102012.28
2023-01-19T12:33:37.959Z,102014.94
2023-01-19T12:36:18.126Z,102014.91
2023-01-19T12:38:58.438Z,102018.44
2023-01-19T12:41:29.481Z,102017.56
2023-01-19T12:44:13.177Z,102022.84
2023-01-19T12:46:58.930Z,102018.44
2023-01-19T12:49:43.923Z,102023.69
2023-01-19T12:52:24.140Z,102028.09
2023-01-19T12:55:00.684Z,102019.28
2023-01-19T12:57:37.794Z,102021.03
2023-01-19T13:00:23.395Z,102029.84
2023-01-19T13:02:57.816Z,102028.94
2023-01-19T13:05:33.274Z,102025.41
2023-01-19T13:08:07.528Z,102024.53
2023-01-19T13:11:07.231Z,102021.88
2023-01-19T13:13:40.919Z,102028.88
2023-01-19T13:16:25.832Z,102027.13
2023-01-19T13:19:09.554Z,102033.25
2023-01-19T13:21:46.016Z,102029.72
2023-01-19T13:24:23.152Z,102027.94
2023-01-19T13:26:51.365Z,102027.09
2023-01-19T13:29:41.723Z,102032.34
2023-01-19T13:32:20.225Z,102030.59
2023-01-19T13:35:02.650Z,102032.31
2023-01-19T13:37:42.573Z,102042.88
2023-01-19T13:40:21.671Z,102038.50
2023-01-19T13:42:52.139Z,102043.75
2023-01-19T13:45:34.587Z,102039.34
2023-01-19T13:48:07.741Z,102054.28
2023-01-19T13:50:43.642Z,102048.97
2023-01-19T13:53:25.236Z,102053.38
2023-01-19T13:56:22.782Z,102062.09
2023-01-19T13:59:14.983Z,102055.97
2023-01-19T14:01:45.975Z,102059.41
2023-01-19T14:04:34.625Z,102053.28
2023-01-19T14:07:14.648Z,102056.75
2023-01-19T14:09:42.954Z,102060.28
2023-01-19T14:12:17.032Z,102050.56
2023-01-19T14:14:48.503Z,102055.84
2023-01-19T14:17:28.050Z,102064.59
2023-01-19T14:19:58.719Z,102067.25
2023-01-19T14:22:44.728Z,102069.00
2023-01-19T14:25:33.077Z,102062.88
2023-01-19T14:28:29.453Z,102066.44
2023-01-19T14:31:04.395Z,102067.28
2023-01-19T14:33:38.113Z,102073.44
2023-01-19T14:36:17.591Z,102078.72
2023-01-19T14:38:48.889Z,102079.59
2023-01-19T14:41:25.758Z,102081.34
2023-01-19T14:43:56.927Z,102076.97
2023-01-19T14:46:25.934Z,102074.31
2023-01-19T14:48:59.552Z,102084.84
2023-01-19T14:51:29.015Z,102090.97
2023-01-19T14:54:00.822Z,102088.28
2023-01-19T14:56:30.549Z,102082.13
2023-01-19T14:59:00.930Z,102091.81
2023-01-19T15:01:30.056Z,102078.59
2023-01-19T15:03:59.414Z,102075.97
2023-01-19T15:06:28.009Z,102078.56
2023-01-19T15:08:56.880Z,102075.03
2023-01-19T15:11:31.230Z,102081.16
2023-01-19T15:14:00.178Z,102085.56
2023-01-19T15:16:30.822Z,102089.03
2023-01-19T15:18:59.120Z,102087.28
2023-01-19T15:21:27.495Z,102096.03
2023-01-19T15:23:56.179Z,102089.00
2023-01-19T15:26:26.469Z,102088.13
2023-01-19T15:28:56.776Z,102092.50
2023-01-19T15:31:27.576Z,102100.41
2023-01-19T15:33:55.935Z,102108.31
2023-01-19T15:36:26.548Z,102106.53
2023-01-19T15:38:54.862Z,102104.75
2023-01-19T15:41:25.005Z,102109.16
2023-01-19T15:43:53.999Z,102109.16
2023-01-19T15:46:23.808Z,102098.66
2023-01-19T15:48:53.122Z,102103.94
2023-01-19T15:51:27.087Z,102104.84
2023-01-19T15:53:56.600Z,102117.16
2023-01-19T15:56:32.667Z,102113.66
2023-01-19T15:59:01.012Z,102111.91
2023-01-19T16:01:34.767Z,102121.56
2023-01-19T16:04:06.566Z,102123.34
2023-01-19T16:06:35.271Z,102119.91
2023-01-19T16:09:04.829Z,102123.47
2023-01-19T16:11:34.903Z,102129.66
2023-01-19T16:14:03.619Z,102129.72
2023-01-19T16:16:32.026Z,102145.56
2023-01-19T16:19:00.344Z,102142.94
2023-01-19T16:21:28.695Z,102148.25
2023-01-19T16:23:57.086Z,102145.66
2023-01-19T16:26:30.092Z,102149.19
2023-01-19T16:29:10.834Z,102151.84
2023-01-19T16:31:44.180Z,102161.56
2023-01-19T16:34:12.965Z,102173.03
2023-01-19T16:36:42.797Z,102173.09
2023-01-19T16:39:16.484Z,102177.53
2023-01-19T16:41:46.271Z,102181.97
2023-01-19T16:44:16.187Z,102174.94
2023-01-19T16:46:47.296Z,102182.03
2023-01-19T16:49:22.081Z,102189.94
2023-01-19T16:51:50.292Z,102193.47
2023-01-19T16:54:22.191Z,102202.25
2023-01-19T16:56:51.033Z,102197.88
2023-01-19T16:59:20.424Z,102208.44
2023-01-19T17:01:51.366Z,102211.97
2023-01-19T17:04:21.504Z,102207.59
2023-01-19T17:06:50.798Z,102204.97
2023-01-19T17:09:19.553Z,102206.75
2023-01-19T17:11:48.467Z,102209.41
2023-01-19T17:14:21.268Z,102211.19
2023-01-19T17:16:49.973Z,102212.97
2023-01-19T17:19:21.002Z,102212.09
2023-01-19T17:21:50.568Z,102205.09
2023-01-19T17:24:19.637Z,102205.97
2023-01-19T17:26:49.509Z,102201.56
2023-01-19T17:29:18.433Z,102199.84
2023-01-19T17:31:47.645Z,102199.84
2023-01-19T17:34:15.981Z,102193.69
2023-01-19T17:36:44.642Z,102198.97
2023-01-19T17:39:15.557Z,102196.34
2023-01-19T17:41:45.476Z,102202.50
2023-01-19T17:44:13.835Z,102201.63
2023-01-19T17:46:42.255Z,102206.00
2023-01-19T17:49:11.912Z,102207.78
2023-01-19T17:51:40.233Z,102212.19
2023-01-19T17:54:08.584Z,102205.16
2023-01-19T17:56:39.391Z,102206.03
2023-01-19T17:59:08.788Z,102213.06
2023-01-19T18:01:40.700Z,102218.38
2023-01-19T18:04:10.448Z,102219.25
2023-01-19T18:06:40.117Z,102215.75
2023-01-19T18:09:08.823Z,102208.69
2023-01-19T18:11:37.274Z,102220.13
2023-01-19T18:14:06.901Z,102221.91
2023-01-19T18:16:35.715Z,102211.34
2023-01-19T18:19:04.184Z,102221.03
2023-01-19T18:21:32.408Z,102222.78
2023-01-19T18:24:05.903Z,102214.84
2023-01-19T18:26:35.679Z,102223.69
2023-01-19T18:29:04.149Z,102230.72
2023-01-19T18:31:32.693Z,102229.84
2023-01-19T18:34:01.093Z,102236.03
2023-01-19T18:36:29.509Z,102229.84
2023-01-19T18:38:57.803Z,102235.13
2023-01-19T18:41:26.140Z,102228.94
2023-01-19T18:43:59.755Z,102224.53
2023-01-19T18:46:28.354Z,102226.31
2023-01-19T18:48:56.836Z,102226.31
2023-01-19T18:51:25.169Z,102216.59
2023-01-19T18:53:53.557Z,102221.03
2023-01-19T18:56:21.816Z,102219.25
2023-01-19T18:58:50.169Z,102220.16
2023-01-19T19:01:29.204Z,102213.97
2023-01-19T19:03:59.517Z,102206.94
2023-01-19T19:06:28.348Z,102200.75
2023-01-19T19:08:58.843Z,102202.53
2023-01-19T19:11:28.774Z,102198.09
2023-01-19T19:14:02.327Z,102197.25
2023-01-19T19:16:35.128Z,102197.22
2023-01-19T19:19:04.234Z,102196.34
2023-01-19T19:21:32.609Z,102203.38
2023-01-19T19:24:00.955Z,102197.19
2023-01-19T19:26:29.972Z,102198.06
2023-01-19T19:28:58.478Z,102200.72
2023-01-19T19:31:28.371Z,102191.88
2023-01-19T19:33:58.192Z,102184.81
2023-01-19T19:36:28.480Z,102187.41
2023-01-19T19:38:57.154Z,102184.75
2023-01-19T19:41:30.439Z,102181.19
2023-01-19T19:43:59.377Z,102179.41
2023-01-19T19:46:28.815Z,102198.81
2023-01-19T19:48:57.212Z,102181.16
2023-01-19T19:51:40.990Z,102182.94
2023-01-19T19:54:09.963Z,102176.75
2023-01-19T19:56:38.228Z,102172.28
2023-01-19T19:59:07.348Z,102162.56
2023-01-19T20:01:35.926Z,102161.63
2023-01-19T20:04:10.520Z,102158.06
2023-01-19T20:06:42.525Z,102154.50
2023-01-19T20:09:13.712Z,102159.81
2023-01-19T20:11:43.172Z,102156.28
2023-01-19T20:14:13.475Z,102143.94
2023-01-19T20:16:41.773Z,102147.41
2023-01-19T20:19:10.224Z,102143.81
2023-01-19T20:21:41.478Z,102132.38
2023-01-19T20:24:15.492Z,102123.56
2023-01-19T20:26:51.187Z,102128.81
2023-01-19T20:29:21.111Z,102118.19
2023-01-19T20:31:52.992Z,102121.66
2023-01-19T20:34:25.420Z,102121.63
2023-01-19T20:36:54.722Z,102128.66
2023-01-19T20:39:24.950Z,102122.47
2023-01-19T20:41:53.484Z,102110.94
2023-01-19T20:44:24.964Z,102117.09
2023-01-19T20:46:55.369Z,102114.34
2023-01-19T20:49:24.207Z,102109.09
2023-01-19T20:51:52.867Z,102101.97
2023-01-19T20:54:25.263Z,102098.41
2023-01-19T20:56:53.772Z,102090.44
2023-01-19T20:59:22.143Z,102098.31
2023-01-19T21:01:50.882Z,102100.91
2023-01-19T21:04:19.342Z,102093.84
2023-01-19T21:06:47.674Z,102092.91
2023-01-19T21:09:16.014Z,102099.91
2023-01-19T21:11:44.360Z,102090.19
2023-01-19T21:14:12.718Z,102087.47
2023-01-19T21:16:43.345Z,102087.44
2023-01-19T21:19:12.814Z,102083.91
2023-01-19T21:21:41.184Z,102083.84
2023-01-19T21:24:11.852Z,102078.53
2023-01-19T21:26:40.363Z,102080.22
2023-01-19T21:29:14.027Z,102073.94
2023-01-19T21:31:42.911Z,102066.03
2023-01-19T21:34:11.416Z,102062.63
2023-01-19T21:36:39.804Z,102069.81
2023-01-19T21:39:09.045Z,102066.38
2023-01-19T21:41:38.906Z,102070.97
2023-01-19T21:44:07.313Z,102063.84
2023-01-19T21:46:36.435Z,102061.94
2023-01-19T21:49:07.593Z,102066.22
2023-01-19T21:51:37.942Z,102061.72
2023-01-19T21:54:08.069Z,102059.94
2023-01-19T21:56:38.816Z,102059.97
2023-01-19T21:59:07.543Z,102060.03
2023-01-19T22:01:36.422Z,102057.25
2023-01-19T22:04:05.036Z,102064.19
2023-01-19T22:06:33.326Z,102062.25
2023-01-19T22:09:01.838Z,102059.53
2023-01-19T22:11:30.995Z,102064.13
2023-01-19T22:14:02.058Z,102065.03
2023-01-19T22:16:31.405Z,102054.16
2023-01-19T22:19:03.082Z,102070.72
2023-01-19T22:21:34.132Z,102063.53
2023-01-19T22:24:04.201Z,102057.25
2023-01-19T22:26:34.988Z,102064.06
2023-01-19T22:29:03.988Z,102068.63
2023-01-19T22:31:32.467Z,102066.75
2023-01-19T22:34:00.844Z,102064.28
2023-01-19T22:36:32.547Z,102065.97
2023-01-19T22:39:09.705Z,102060.88
2023-01-19T22:41:43.374Z,102070.84
2023-01-19T22:44:17.653Z,102071.59
2023-01-19T22:46:46.293Z,102064.53
2023-01-19T22:49:17.149Z,102069.69
2023-01-19T22:51:46.276Z,102062.81
2023-01-19T22:54:14.575Z,102067.56
2023-01-19T22:56:43.776Z,102069.34
2023-01-19T22:59:12.037Z,102070.22
2023-01-19T23:01:44.776Z,102070.22
2023-01-19T23:04:17.029Z,102064.09
2023-01-19T23:06:50.197Z,102073.16
2023-01-19T23:09:18.842Z,102067.94
2023-01-19T23:11:52.173Z,102070.56
2023-01-19T23:14:22.909Z,102071.44
2023-01-19T23:16:51.239Z,102075.84
2023-01-19T23:19:20.306Z,102081.19
2023-01-19T23:21:52.856Z,102078.63
2023-01-19T23:24:21.274Z,102077.78
2023-01-19T23:26:51.493Z,102078.75
2023-01-19T23:29:20.573Z,102079.66
2023-01-19T23:31:50.443Z,102082.38
2023-01-19T23:34:18.800Z,102086.81
2023-01-19T23:36:47.229Z,102085.09
2023-01-19T23:39:21.691Z,102087.78
2023-01-19T23:41:50.757Z,102086.91
2023-01-19T23:44:19.450Z,102098.47
2023-01-19T23:46:48.011Z,102095.84
2023-01-19T23:49:16.388Z,102104.72
2023-01-19T23:51:44.697Z,102096.84
2023-01-19T23:54:13.161Z,102095.13
2023-01-19T23:56:43.371Z,102107.50
2023-01-19T23:59:14.207Z,102100.50
